createdAt,value
2018-12-01T00:01:20.327Z,25.85
2018-12-01T00:02:20.336Z,25.88
2018-12-01T00:04:13.433Z,25.78
2018-12-01T00:05:13.261Z,25.82
2018-12-01T00:07:06.373Z,25.80
2018-12-01T00:08:06.391Z,25.75
2018-12-01T00:09:59.585Z,25.80
2018-12-01T00:10:59.310Z,25.75
2018-12-01T00:12:52.227Z,25.77
2018-12-01T00:13:52.245Z,25.78
2018-12-01T00:15:45.404Z,25.80
2018-12-01T00:16:45.167Z,25.75
2018-12-01T00:18:38.076Z,25.77
2018-12-01T00:19:38.091Z,25.78
2018-12-01T00:21:31.209Z,25.65
2018-12-01T00:22:31.034Z,25.59
2018-12-01T00:24:23.951Z,25.25
2018-12-01T00:25:23.958Z,25.13
2018-12-01T00:27:17.137Z,25.08
2018-12-01T00:28:16.884Z,25.04
2018-12-01T00:30:09.861Z,25.10
2018-12-01T00:31:09.808Z,25.15
2018-12-01T00:33:02.894Z,25.10
2018-12-01T00:34:02.733Z,25.04
2018-12-01T00:35:55.655Z,25.15
2018-12-01T00:36:55.668Z,25.15
2018-12-01T00:38:48.841Z,25.10
2018-12-01T00:39:48.598Z,25.18
2018-12-01T00:41:41.517Z,25.20
2018-12-01T00:42:41.514Z,25.13
2018-12-01T00:44:34.626Z,25.23
2018-12-01T00:45:34.463Z,25.13
2018-12-01T00:47:27.376Z,25.01
2018-12-01T00:48:27.389Z,25.00
2018-12-01T00:50:20.565Z,25.13
2018-12-01T00:51:20.319Z,25.03
2018-12-01T00:53:13.250Z,25.10
2018-12-01T00:54:13.268Z,25.13
2018-12-01T00:56:17.529Z,24.96
2018-12-01T00:57:06.188Z,25.08
2018-12-01T00:58:59.105Z,25.07
2018-12-01T00:59:59.110Z,25.07
2018-12-01T01:01:52.189Z,25.11
2018-12-01T01:02:52.034Z,25.13
2018-12-01T01:04:44.954Z,25.15
2018-12-01T01:05:44.967Z,25.08
2018-12-01T01:07:38.157Z,25.14
2018-12-01T01:08:37.903Z,25.11
2018-12-01T01:10:30.828Z,25.14
2018-12-01T01:11:30.837Z,25.19
2018-12-01T01:13:23.919Z,25.13
2018-12-01T01:14:23.753Z,25.23
2018-12-01T01:16:16.679Z,25.18
2018-12-01T01:17:16.701Z,25.13
2018-12-01T01:19:09.922Z,25.08
2018-12-01T01:20:09.825Z,25.08
2018-12-01T01:22:02.739Z,25.15
2018-12-01T01:23:02.773Z,25.08
2018-12-01T01:24:55.735Z,25.11
2018-12-01T01:25:55.672Z,24.91
2018-12-01T01:27:48.586Z,24.70
2018-12-01T01:28:48.617Z,24.76
2018-12-01T01:30:41.770Z,24.85
2018-12-01T01:31:41.530Z,24.93
2018-12-01T01:33:34.445Z,24.86
2018-12-01T01:34:34.523Z,24.93
2018-12-01T01:36:29.689Z,24.77
2018-12-01T01:37:27.379Z,24.85
2018-12-01T01:39:20.286Z,24.77
2018-12-01T01:40:20.329Z,24.78
2018-12-01T01:42:13.443Z,24.81
2018-12-01T01:43:13.259Z,24.83
2018-12-01T01:45:06.369Z,24.78
2018-12-01T01:46:06.358Z,24.85
2018-12-01T01:47:59.539Z,24.83
2018-12-01T01:48:59.288Z,24.91
2018-12-01T01:50:52.208Z,24.88
2018-12-01T01:51:52.214Z,24.98
2018-12-01T01:53:45.388Z,25.00
2018-12-01T01:54:45.140Z,25.01
2018-12-01T01:56:38.054Z,25.06
2018-12-01T01:57:38.132Z,25.07
2018-12-01T01:59:31.152Z,25.14
2018-12-01T02:00:30.988Z,25.26
2018-12-01T02:02:23.933Z,25.20
2018-12-01T02:03:23.916Z,25.18
2018-12-01T02:05:17.143Z,25.13
2018-12-01T02:06:16.872Z,25.11
2018-12-01T02:08:09.773Z,25.18
2018-12-01T02:09:09.788Z,25.14
2018-12-01T02:11:02.957Z,25.14
2018-12-01T02:12:02.711Z,25.20
2018-12-01T02:13:55.628Z,25.15
2018-12-01T02:14:55.638Z,25.14
2018-12-01T02:16:48.732Z,25.26
2018-12-01T02:17:48.573Z,25.26
2018-12-01T02:19:41.471Z,25.23
2018-12-01T02:20:41.487Z,25.23
2018-12-01T02:22:34.565Z,25.15
2018-12-01T02:23:34.407Z,25.08
2018-12-01T02:25:27.317Z,25.11
2018-12-01T02:26:27.330Z,25.13
2018-12-01T02:28:21.293Z,25.08
2018-12-01T02:29:20.253Z,25.04
2018-12-01T02:31:13.169Z,25.03
2018-12-01T02:32:13.177Z,24.91
2018-12-01T02:34:06.161Z,24.95
2018-12-01T02:35:06.102Z,24.91
2018-12-01T02:36:59.010Z,24.82
2018-12-01T02:37:59.028Z,24.92
2018-12-01T02:39:52.012Z,24.82
2018-12-01T02:40:51.949Z,24.92
2018-12-01T02:42:44.857Z,24.92
2018-12-01T02:43:44.869Z,24.92
2018-12-01T02:45:38.040Z,24.96
2018-12-01T02:46:37.794Z,24.81
2018-12-01T02:48:30.708Z,24.78
2018-12-01T02:49:30.721Z,24.83
2018-12-01T02:51:23.893Z,24.89
2018-12-01T02:52:23.645Z,24.91
2018-12-01T02:54:16.553Z,24.85
2018-12-01T02:55:16.566Z,24.85
2018-12-01T02:57:09.554Z,24.86
2018-12-01T02:58:09.489Z,24.85
2018-12-01T03:00:02.500Z,24.89
2018-12-01T03:01:02.514Z,25.00
2018-12-01T03:02:55.595Z,25.08
2018-12-01T03:03:55.436Z,25.04
2018-12-01T03:05:48.346Z,25.03
2018-12-01T03:06:48.362Z,24.98
2018-12-01T03:08:41.502Z,24.98
2018-12-01T03:09:41.288Z,24.98
2018-12-01T03:11:34.197Z,25.00
2018-12-01T03:12:34.208Z,25.08
2018-12-01T03:14:27.290Z,25.01
2018-12-01T03:15:27.138Z,25.10
2018-12-01T03:17:20.045Z,25.08
2018-12-01T03:18:20.056Z,25.04
2018-12-01T03:20:13.233Z,25.07
2018-12-01T03:21:12.981Z,25.00
2018-12-01T03:23:05.894Z,24.91
2018-12-01T03:24:05.910Z,25.03
2018-12-01T03:25:59.075Z,25.03
2018-12-01T03:26:58.827Z,25.00
2018-12-01T03:28:51.740Z,25.08
2018-12-01T03:29:51.750Z,25.07
2018-12-01T03:31:44.936Z,25.15
2018-12-01T03:32:44.674Z,25.11
2018-12-01T03:34:37.584Z,25.04
2018-12-01T03:35:37.597Z,25.10
2018-12-01T03:37:30.686Z,25.19
2018-12-01T03:38:30.521Z,25.23
2018-12-01T03:40:23.435Z,25.26
2018-12-01T03:41:23.446Z,25.32
2018-12-01T03:43:16.524Z,25.47
2018-12-01T03:44:16.375Z,25.51
2018-12-01T03:46:09.290Z,25.56
2018-12-01T03:47:09.298Z,25.47
2018-12-01T03:49:02.466Z,25.48
2018-12-01T03:50:02.226Z,25.53
2018-12-01T03:51:55.138Z,25.48
2018-12-01T03:52:55.155Z,25.53
2018-12-01T03:54:48.338Z,25.66
2018-12-01T03:55:48.085Z,25.67
2018-12-01T03:57:41.078Z,25.69
2018-12-01T03:58:41.011Z,25.73
2018-12-01T04:00:34.184Z,25.87
2018-12-01T04:01:33.939Z,25.93
2018-12-01T04:03:26.851Z,25.93
2018-12-01T04:04:26.865Z,26.02
2018-12-01T04:06:19.949Z,25.97
2018-12-01T04:07:19.795Z,26.07
2018-12-01T04:09:12.918Z,26.02
2018-12-01T04:10:12.936Z,26.02
2018-12-01T04:12:06.103Z,26.04
2018-12-01T04:13:05.859Z,26.04
2018-12-01T04:14:58.778Z,26.26
2018-12-01T04:15:58.790Z,26.34
2018-12-01T04:17:51.873Z,26.35
2018-12-01T04:18:51.720Z,26.37
2018-12-01T04:20:44.642Z,26.60
2018-12-01T04:21:44.651Z,26.63
2018-12-01T04:23:37.727Z,26.72
2018-12-01T04:24:37.570Z,26.74
2018-12-01T04:26:30.486Z,26.68
2018-12-01T04:27:30.497Z,26.77
2018-12-01T04:29:23.664Z,26.59
2018-12-01T04:30:23.428Z,26.56
2018-12-01T04:32:16.336Z,26.48
2018-12-01T04:33:16.363Z,26.52
2018-12-01T04:35:09.525Z,26.30
2018-12-01T04:36:09.281Z,26.30
2018-12-01T04:38:02.196Z,26.38
2018-12-01T04:39:02.205Z,26.43
2018-12-01T04:40:56.186Z,26.33
2018-12-01T04:41:55.135Z,26.25
2018-12-01T04:43:48.075Z,26.28
2018-12-01T04:44:48.065Z,26.22
2018-12-01T04:46:41.239Z,26.23
2018-12-01T04:47:40.999Z,26.18
2018-12-01T04:49:33.909Z,26.15
2018-12-01T04:50:33.925Z,26.02
2018-12-01T04:52:26.990Z,26.00
2018-12-01T04:53:26.852Z,26.03
2018-12-01T04:55:20.755Z,26.04
2018-12-01T04:56:20.766Z,25.99
2018-12-01T04:58:13.933Z,26.04
2018-12-01T04:59:13.694Z,25.96
2018-12-01T05:01:06.636Z,26.04
2018-12-01T05:02:06.621Z,26.06
2018-12-01T05:03:59.817Z,26.03
2018-12-01T05:04:59.563Z,26.12
2018-12-01T05:06:52.518Z,26.26
2018-12-01T05:07:52.532Z,26.38
2018-12-01T05:09:45.619Z,26.37
2018-12-01T05:10:45.460Z,26.38
2018-12-01T05:12:39.363Z,26.48
2018-12-01T05:13:39.377Z,26.45
2018-12-01T05:15:32.551Z,26.31
2018-12-01T05:16:32.310Z,26.34
2018-12-01T05:18:25.229Z,26.37
2018-12-01T05:19:25.261Z,26.28
2018-12-01T05:21:18.417Z,26.20
2018-12-01T05:22:18.175Z,26.25
2018-12-01T05:24:11.087Z,26.06
2018-12-01T05:25:11.100Z,26.15
2018-12-01T05:27:04.208Z,26.06
2018-12-01T05:28:04.026Z,26.19
2018-12-01T05:29:56.942Z,26.38
2018-12-01T05:30:56.961Z,26.41
2018-12-01T05:32:50.148Z,26.37
2018-12-01T05:33:49.895Z,26.49
2018-12-01T05:35:42.822Z,26.55
2018-12-01T05:36:42.827Z,26.62
2018-12-01T05:38:36.007Z,26.65
2018-12-01T05:39:35.755Z,26.71
2018-12-01T05:41:28.671Z,26.86
2018-12-01T05:42:28.712Z,26.93
2018-12-01T05:44:21.874Z,26.99
2018-12-01T05:45:21.619Z,26.97
2018-12-01T05:47:14.531Z,27.09
2018-12-01T05:48:14.543Z,27.08
2018-12-01T05:50:21.782Z,27.18
2018-12-01T05:51:07.555Z,27.27
2018-12-01T05:53:00.393Z,27.22
2018-12-01T05:54:00.402Z,27.26
2018-12-01T05:55:53.607Z,27.14
2018-12-01T05:56:53.345Z,27.22
2018-12-01T05:58:47.254Z,27.26
2018-12-01T05:59:47.273Z,27.27
2018-12-01T06:01:40.449Z,27.34
2018-12-01T06:02:40.200Z,27.39
2018-12-01T06:04:33.118Z,27.36
2018-12-01T06:05:33.159Z,27.42
2018-12-01T06:07:26.304Z,27.46
2018-12-01T06:08:26.055Z,27.45
2018-12-01T06:10:18.971Z,27.48
2018-12-01T06:11:18.984Z,27.48
2018-12-01T06:13:12.161Z,27.49
2018-12-01T06:14:11.913Z,27.45
2018-12-01T06:16:04.825Z,27.58
2018-12-01T06:17:04.841Z,27.54
2018-12-01T06:18:58.050Z,27.52
2018-12-01T06:19:57.774Z,27.60
2018-12-01T06:21:50.700Z,27.54
2018-12-01T06:22:50.716Z,27.52
2018-12-01T06:24:58.284Z,27.52
2018-12-01T06:25:43.645Z,27.61
2018-12-01T06:27:36.559Z,27.55
2018-12-01T06:28:36.577Z,27.52
2018-12-01T06:30:29.754Z,27.49
2018-12-01T06:31:29.503Z,27.68
2018-12-01T06:33:22.419Z,27.74
2018-12-01T06:34:22.442Z,27.74
2018-12-01T06:36:15.430Z,27.68
2018-12-01T06:37:15.365Z,27.75
2018-12-01T06:39:08.279Z,27.75
2018-12-01T06:40:08.293Z,27.79
2018-12-01T06:42:02.260Z,27.80
2018-12-01T06:43:01.226Z,27.72
2018-12-01T06:44:54.156Z,27.74
2018-12-01T06:45:54.169Z,27.82
2018-12-01T06:47:47.262Z,27.87
2018-12-01T06:48:47.100Z,27.87
2018-12-01T06:50:40.010Z,27.93
2018-12-01T06:51:40.028Z,27.98
2018-12-01T06:53:33.110Z,27.97
2018-12-01T06:54:32.957Z,28.01
2018-12-01T06:56:25.874Z,28.05
2018-12-01T06:57:25.888Z,28.01
2018-12-01T06:59:19.083Z,27.98
2018-12-01T07:00:18.820Z,27.89
2018-12-01T07:02:12.299Z,27.93
2018-12-01T07:03:11.749Z,28.07
2018-12-01T07:05:04.970Z,28.07
2018-12-01T07:06:04.674Z,28.16
2018-12-01T07:07:57.605Z,28.22
2018-12-01T07:08:57.605Z,28.22
2018-12-01T07:10:50.784Z,28.26
2018-12-01T07:11:50.546Z,28.29
2018-12-01T07:13:43.453Z,28.24
2018-12-01T07:14:43.520Z,28.27
2018-12-01T07:16:36.786Z,28.26
2018-12-01T07:17:36.601Z,28.30
2018-12-01T07:19:29.523Z,28.29
2018-12-01T07:20:29.537Z,28.32
2018-12-01T07:22:22.714Z,28.27
2018-12-01T07:23:22.465Z,28.27
2018-12-01T07:25:15.385Z,28.32
2018-12-01T07:26:15.398Z,28.35
2018-12-01T07:28:08.488Z,28.29
2018-12-01T07:29:08.330Z,28.32
2018-12-01T07:31:01.934Z,28.27
2018-12-01T07:32:01.335Z,28.26
2018-12-01T07:33:54.365Z,28.29
2018-12-01T07:34:54.191Z,28.30
2018-12-01T07:36:47.109Z,28.26
2018-12-01T07:37:47.123Z,28.30
2018-12-01T07:39:40.305Z,28.34
2018-12-01T07:40:40.058Z,28.32
2018-12-01T07:42:32.977Z,28.32
2018-12-01T07:43:32.996Z,28.30
2018-12-01T07:45:26.181Z,28.30
2018-12-01T07:46:25.921Z,28.29
2018-12-01T07:48:18.847Z,28.30
2018-12-01T07:49:18.854Z,28.35
2018-12-01T07:51:11.963Z,28.26
2018-12-01T07:52:11.876Z,28.32
2018-12-01T07:54:04.793Z,28.34
2018-12-01T07:55:04.810Z,28.26
2018-12-01T07:56:57.989Z,28.34
2018-12-01T07:57:57.739Z,28.26
2018-12-01T07:59:50.651Z,28.30
2018-12-01T08:00:50.673Z,28.30
2018-12-01T08:02:43.767Z,28.27
2018-12-01T08:03:43.609Z,28.29
2018-12-01T08:05:36.727Z,28.30
2018-12-01T08:06:36.735Z,28.23
2018-12-01T08:08:29.829Z,28.24
2018-12-01T08:09:29.670Z,28.07
2018-12-01T08:11:22.601Z,27.99
2018-12-01T08:12:22.637Z,27.95
2018-12-01T08:14:15.725Z,28.12
2018-12-01T08:15:15.573Z,28.09
2018-12-01T08:17:08.488Z,28.09
2018-12-01T08:18:08.499Z,28.14
2018-12-01T08:20:01.589Z,28.07
2018-12-01T08:21:01.431Z,28.02
2018-12-01T08:22:54.372Z,28.09
2018-12-01T08:23:54.359Z,28.16
2018-12-01T08:25:47.357Z,28.16
2018-12-01T08:26:47.291Z,28.19
2018-12-01T08:28:40.206Z,28.17
2018-12-01T08:29:40.242Z,28.22
2018-12-01T08:31:33.966Z,28.23
2018-12-01T08:32:33.150Z,28.24
2018-12-01T08:34:26.068Z,28.29
2018-12-01T08:35:26.079Z,28.23
2018-12-01T08:37:19.301Z,28.23
2018-12-01T08:38:19.038Z,28.20
2018-12-01T08:40:12.001Z,28.24
2018-12-01T08:41:11.983Z,28.26
2018-12-01T08:43:05.168Z,28.29
2018-12-01T08:44:04.923Z,28.32
2018-12-01T08:45:57.836Z,28.29
2018-12-01T08:46:57.847Z,28.32
2018-12-01T08:49:05.097Z,28.38
2018-12-01T08:49:50.778Z,28.39
2018-12-01T08:51:43.694Z,28.36
2018-12-01T08:52:43.709Z,28.38
2018-12-01T08:54:36.802Z,28.42
2018-12-01T08:55:36.637Z,28.44
2018-12-01T08:57:29.591Z,28.39
2018-12-01T08:58:29.577Z,28.41
2018-12-01T09:00:22.780Z,28.27
2018-12-01T09:01:22.507Z,28.26
2018-12-01T09:03:15.440Z,28.20
2018-12-01T09:04:15.438Z,28.26
2018-12-01T09:06:08.610Z,28.22
2018-12-01T09:07:08.372Z,28.20
2018-12-01T09:09:01.287Z,28.05
2018-12-01T09:10:01.300Z,28.26
2018-12-01T09:11:54.413Z,28.08
2018-12-01T09:12:54.235Z,28.09
2018-12-01T09:14:47.148Z,28.09
2018-12-01T09:15:47.163Z,27.90
2018-12-01T09:17:40.336Z,27.98
2018-12-01T09:18:40.099Z,27.92
2018-12-01T09:20:33.041Z,28.07
2018-12-01T09:21:33.023Z,27.99
2018-12-01T09:23:26.200Z,28.01
2018-12-01T09:24:25.954Z,27.92
2018-12-01T09:26:18.870Z,27.97
2018-12-01T09:27:22.489Z,28.08
2018-12-01T09:29:11.972Z,28.01
2018-12-01T09:30:11.816Z,27.99
2018-12-01T09:32:04.740Z,27.97
2018-12-01T09:33:04.745Z,27.93
2018-12-01T09:34:57.918Z,27.99
2018-12-01T09:35:57.675Z,27.89
2018-12-01T09:37:50.593Z,27.89
2018-12-01T09:38:50.607Z,27.82
2018-12-01T09:40:49.162Z,27.82
2018-12-01T09:41:43.539Z,27.85
2018-12-01T09:43:36.455Z,27.74
2018-12-01T09:44:36.472Z,27.62
2018-12-01T09:46:29.648Z,27.68
2018-12-01T09:47:29.403Z,27.70
2018-12-01T09:49:22.353Z,27.79
2018-12-01T09:50:22.332Z,27.72
2018-12-01T09:52:15.598Z,27.65
2018-12-01T09:53:15.458Z,27.62
2018-12-01T09:55:08.387Z,27.70
2018-12-01T09:56:08.397Z,27.61
2018-12-01T09:58:01.580Z,27.65
2018-12-01T09:59:01.327Z,27.67
2018-12-01T10:00:54.236Z,27.72
2018-12-01T10:01:54.251Z,27.65
2018-12-01T10:03:47.429Z,27.68
2018-12-01T10:04:47.180Z,27.64
2018-12-01T10:06:40.098Z,27.65
2018-12-01T10:07:40.112Z,27.62
2018-12-01T10:09:33.189Z,27.64
2018-12-01T10:10:33.040Z,27.62
2018-12-01T10:12:25.959Z,27.54
2018-12-01T10:13:25.982Z,27.58
2018-12-01T10:15:18.969Z,27.45
2018-12-01T10:16:18.907Z,27.55
2018-12-01T10:18:11.849Z,27.46
2018-12-01T10:19:11.849Z,27.45
2018-12-01T10:21:05.062Z,27.45
2018-12-01T10:22:04.778Z,27.45
2018-12-01T10:23:57.694Z,27.44
2018-12-01T10:24:57.704Z,27.32
2018-12-01T10:26:50.774Z,27.45
2018-12-01T10:27:50.646Z,27.37
2018-12-01T10:29:44.101Z,27.30
2018-12-01T10:30:43.563Z,27.37
2018-12-01T10:32:36.650Z,27.33
2018-12-01T10:33:36.490Z,27.30
2018-12-01T10:35:29.407Z,27.23
2018-12-01T10:36:29.422Z,27.29
2018-12-01T10:38:22.436Z,27.19
2018-12-01T10:39:22.373Z,27.22
2018-12-01T10:41:15.291Z,27.18
2018-12-01T10:42:15.300Z,27.07
2018-12-01T10:44:08.487Z,27.12
2018-12-01T10:45:08.236Z,27.11
2018-12-01T10:47:01.700Z,27.19
2018-12-01T10:48:01.167Z,27.14
2018-12-01T10:49:54.339Z,27.15
2018-12-01T10:50:54.090Z,27.09
2018-12-01T10:52:47.039Z,27.15
2018-12-01T10:53:47.026Z,27.17
2018-12-01T10:55:40.237Z,27.23
2018-12-01T10:56:39.949Z,27.08
2018-12-01T10:58:32.880Z,27.15
2018-12-01T10:59:32.883Z,27.08
2018-12-01T11:01:25.969Z,27.09
2018-12-01T11:02:25.814Z,27.05
2018-12-01T11:04:18.724Z,27.02
2018-12-01T11:05:18.741Z,26.96
2018-12-01T11:07:11.923Z,26.93
2018-12-01T11:08:11.679Z,26.99
2018-12-01T11:10:04.597Z,26.93
2018-12-01T11:11:04.606Z,26.92
2018-12-01T11:12:57.691Z,26.97
2018-12-01T11:13:57.534Z,26.90
2018-12-01T11:15:50.445Z,26.87
2018-12-01T11:16:50.458Z,26.92
2018-12-01T11:19:01.696Z,26.85
2018-12-01T11:19:43.385Z,26.87
2018-12-01T11:21:36.303Z,26.77
2018-12-01T11:22:36.315Z,26.74
2018-12-01T11:24:29.403Z,26.72
2018-12-01T11:25:29.244Z,26.77
2018-12-01T11:27:22.160Z,26.74
2018-12-01T11:28:22.194Z,26.72
2018-12-01T11:30:15.160Z,26.77
2018-12-01T11:31:15.101Z,26.72
2018-12-01T11:33:08.019Z,26.78
2018-12-01T11:34:08.033Z,26.75
2018-12-01T11:36:01.202Z,26.71
2018-12-01T11:37:00.966Z,26.72
2018-12-01T11:38:53.875Z,26.78
2018-12-01T11:39:53.891Z,26.77
2018-12-01T11:41:47.063Z,26.71
2018-12-01T11:42:46.814Z,26.75
2018-12-01T11:44:39.735Z,26.71
2018-12-01T11:45:39.745Z,26.65
2018-12-01T11:47:32.927Z,26.67
2018-12-01T11:48:32.679Z,26.65
2018-12-01T11:50:25.589Z,26.70
2018-12-01T11:51:25.629Z,26.57
2018-12-01T11:53:18.794Z,26.56
2018-12-01T11:54:18.526Z,26.52
2018-12-01T11:56:11.448Z,26.57
2018-12-01T11:57:11.455Z,26.53
2018-12-01T11:59:04.629Z,26.55
2018-12-01T12:00:04.385Z,26.60
2018-12-01T12:02:00.476Z,26.57
2018-12-01T12:02:57.313Z,26.50
2018-12-01T12:04:50.404Z,26.53
2018-12-01T12:05:50.241Z,26.48
2018-12-01T12:07:43.160Z,26.35
2018-12-01T12:08:43.169Z,26.44
2018-12-01T12:10:37.134Z,26.34
2018-12-01T12:11:36.102Z,26.34
2018-12-01T12:13:29.010Z,26.40
2018-12-01T12:14:29.020Z,26.41
2018-12-01T12:16:22.198Z,26.45
2018-12-01T12:17:21.946Z,26.52
2018-12-01T12:19:14.871Z,26.41
2018-12-01T12:20:14.882Z,26.38
2018-12-01T12:22:07.873Z,26.49
2018-12-01T12:23:07.802Z,26.50
2018-12-01T12:25:00.713Z,26.35
2018-12-01T12:26:00.728Z,26.31
2018-12-01T12:27:53.895Z,26.22
2018-12-01T12:28:53.652Z,26.30
2018-12-01T12:30:46.568Z,26.38
2018-12-01T12:31:46.581Z,26.38
2018-12-01T12:33:39.691Z,26.34
2018-12-01T12:34:39.511Z,26.34
2018-12-01T12:36:32.421Z,26.40
2018-12-01T12:37:32.465Z,26.35
2018-12-01T12:39:25.510Z,26.37
2018-12-01T12:40:25.358Z,26.40
2018-12-01T12:42:18.268Z,26.41
2018-12-01T12:43:18.282Z,26.26
2018-12-01T12:45:11.458Z,26.26
2018-12-01T12:46:11.207Z,26.31
2018-12-01T12:48:04.122Z,26.37
2018-12-01T12:49:04.132Z,26.35
2018-12-01T12:50:57.129Z,26.34
2018-12-01T12:51:57.059Z,26.31
2018-12-01T12:53:49.974Z,26.35
2018-12-01T12:54:49.988Z,26.22
2018-12-01T12:56:43.173Z,26.28
2018-12-01T12:57:42.915Z,26.30
2018-12-01T12:59:35.835Z,26.34
2018-12-01T13:00:36.475Z,26.28
2018-12-01T13:02:52.705Z,26.35
2018-12-01T13:03:28.770Z,26.34
2018-12-01T13:05:21.688Z,26.43
2018-12-01T13:06:21.704Z,26.34
2018-12-01T13:08:14.880Z,26.28
2018-12-01T13:09:14.627Z,26.26
2018-12-01T13:11:07.543Z,26.22
2018-12-01T13:12:07.558Z,26.26
2018-12-01T13:14:01.443Z,26.34
2018-12-01T13:15:00.482Z,26.26
2018-12-01T13:16:53.398Z,26.30
2018-12-01T13:17:54.091Z,26.33
2018-12-01T13:19:46.581Z,26.41
2018-12-01T13:20:46.330Z,26.34
2018-12-01T13:22:39.245Z,26.40
2018-12-01T13:23:39.270Z,26.41
2018-12-01T13:27:03.781Z,26.37
2018-12-01T13:28:03.842Z,26.31
2018-12-01T13:29:56.705Z,26.40
2018-12-01T13:30:56.717Z,26.37
2018-12-01T13:32:57.273Z,26.34
2018-12-01T13:33:49.640Z,26.34
2018-12-01T13:35:42.557Z,26.35
2018-12-01T13:36:42.567Z,26.37
2018-12-01T13:38:35.747Z,26.40
2018-12-01T13:39:35.494Z,26.40
2018-12-01T13:41:28.411Z,26.45
2018-12-01T13:42:28.421Z,26.40
2018-12-01T13:44:29.664Z,26.50
2018-12-01T13:45:21.365Z,26.43
2018-12-01T13:47:14.324Z,26.41
2018-12-01T13:48:14.372Z,26.49
2018-12-01T13:50:07.529Z,26.55
2018-12-01T13:51:07.279Z,26.37
2018-12-01T13:53:00.203Z,26.48
2018-12-01T13:54:00.204Z,26.40
2018-12-01T13:55:53.204Z,26.53
2018-12-01T13:56:53.184Z,26.50
2018-12-01T13:58:46.047Z,26.50
2018-12-01T13:59:46.062Z,26.56
2018-12-01T14:01:39.241Z,26.57
2018-12-01T14:02:38.994Z,26.49
2018-12-01T14:04:31.949Z,26.57
2018-12-01T14:05:31.938Z,26.50
2018-12-01T14:07:25.307Z,26.63
2018-12-01T14:08:25.059Z,26.52
2018-12-01T14:10:17.971Z,26.52
2018-12-01T14:11:17.985Z,26.52
2018-12-01T14:13:11.158Z,26.52
2018-12-01T14:14:10.941Z,26.52
2018-12-01T14:16:04.405Z,26.55
2018-12-01T14:17:03.871Z,26.56
2018-12-01T14:18:57.835Z,26.55
2018-12-01T14:19:56.825Z,26.57
2018-12-01T14:21:49.727Z,26.57
2018-12-01T14:22:49.742Z,26.57
2018-12-01T14:24:42.832Z,26.56
2018-12-01T14:25:42.666Z,26.60
2018-12-01T14:27:35.577Z,26.56
2018-12-01T14:28:35.592Z,26.57
2018-12-01T14:30:28.721Z,26.52
2018-12-01T14:31:28.519Z,26.52
2018-12-01T14:33:21.457Z,26.53
2018-12-01T14:34:21.447Z,26.53
2018-12-01T14:36:14.526Z,26.40
2018-12-01T14:37:14.379Z,26.49
2018-12-01T14:39:07.843Z,26.56
2018-12-01T14:40:07.340Z,26.55
2018-12-01T14:42:00.481Z,26.53
2018-12-01T14:43:00.231Z,26.55
2018-12-01T14:44:53.153Z,26.52
2018-12-01T14:45:53.162Z,26.52
2018-12-01T14:47:46.162Z,26.53
2018-12-01T14:48:46.146Z,26.52
2018-12-01T14:50:39.572Z,26.59
2018-12-01T14:51:39.020Z,26.52
2018-12-01T14:53:32.014Z,26.49
2018-12-01T14:54:31.953Z,26.52
2018-12-01T14:56:24.863Z,26.53
2018-12-01T14:57:24.879Z,26.55
2018-12-01T14:59:17.971Z,26.56
2018-12-01T15:00:17.802Z,26.45
2018-12-01T15:02:10.716Z,26.48
2018-12-01T15:03:10.730Z,26.60
2018-12-01T15:05:03.815Z,26.53
2018-12-01T15:06:03.656Z,26.52
2018-12-01T15:07:56.571Z,26.55
2018-12-01T15:08:56.582Z,26.48
2018-12-01T15:10:50.549Z,26.37
2018-12-01T15:11:49.506Z,26.38
2018-12-01T15:13:42.420Z,26.50
2018-12-01T15:14:42.436Z,26.48
2018-12-01T15:16:35.534Z,26.50
2018-12-01T15:17:35.375Z,26.57
2018-12-01T15:19:28.289Z,26.52
2018-12-01T15:20:28.301Z,26.50
2018-12-01T15:22:21.479Z,26.60
2018-12-01T15:23:21.226Z,26.52
2018-12-01T15:25:14.138Z,26.59
2018-12-01T15:26:14.153Z,26.60
2018-12-01T15:28:29.713Z,26.50
2018-12-01T15:29:07.078Z,26.59
2018-12-01T15:31:00.000Z,26.50
2018-12-01T15:32:00.013Z,26.53
2018-12-01T15:33:53.191Z,26.52
2018-12-01T15:34:52.936Z,26.52
2018-12-01T15:36:45.846Z,26.55
2018-12-01T15:37:45.859Z,26.53
2018-12-01T15:39:39.083Z,26.57
2018-12-01T15:40:38.794Z,26.57
2018-12-01T15:42:32.255Z,26.49
2018-12-01T15:43:31.716Z,26.48
2018-12-01T15:45:24.895Z,26.49
2018-12-01T15:46:24.641Z,26.57
2018-12-01T15:48:17.557Z,26.56
2018-12-01T15:49:17.573Z,26.52
2018-12-01T15:51:10.787Z,26.62
2018-12-01T15:52:10.495Z,26.56
2018-12-01T15:54:03.412Z,26.50
2018-12-01T15:55:03.424Z,26.44
2018-12-01T15:56:56.415Z,26.45
2018-12-01T15:57:56.351Z,26.48
2018-12-01T15:59:49.264Z,26.28
2018-12-01T16:00:49.279Z,26.41
2018-12-01T16:02:42.453Z,26.31
2018-12-01T16:03:42.205Z,26.37
2018-12-01T16:05:35.689Z,26.38
2018-12-01T16:06:35.134Z,26.31
2018-12-01T16:08:33.285Z,26.26
2018-12-01T16:09:28.055Z,26.28
2018-12-01T16:11:20.972Z,26.25
2018-12-01T16:12:20.987Z,26.23
2018-12-01T16:14:14.163Z,26.33
2018-12-01T16:15:13.910Z,26.35
2018-12-01T16:17:06.859Z,26.30
2018-12-01T16:18:06.873Z,26.25
2018-12-01T16:19:59.966Z,26.31
2018-12-01T16:20:59.803Z,26.34
2018-12-01T16:22:52.718Z,26.30
2018-12-01T16:23:52.730Z,26.26
2018-12-01T16:25:45.912Z,26.25
2018-12-01T16:26:45.664Z,26.18
2018-12-01T16:28:38.576Z,26.11
2018-12-01T16:29:38.591Z,26.11
2018-12-01T16:32:03.333Z,26.23
2018-12-01T16:32:31.520Z,26.11
2018-12-01T16:34:24.482Z,26.20
2018-12-01T16:35:24.485Z,26.12
2018-12-01T16:37:17.480Z,26.26
2018-12-01T16:38:17.418Z,26.18
2018-12-01T16:40:10.322Z,26.22
2018-12-01T16:41:10.338Z,26.10
2018-12-01T16:43:04.449Z,26.18
2018-12-01T16:44:04.246Z,26.26
2018-12-01T16:45:57.166Z,26.11
2018-12-01T16:46:57.183Z,26.04
2018-12-01T16:48:50.265Z,26.03
2018-12-01T16:49:50.099Z,26.15
2018-12-01T16:51:43.024Z,26.07
2018-12-01T16:52:43.038Z,26.10
2018-12-01T16:54:36.414Z,26.16
2018-12-01T16:55:36.163Z,26.04
2018-12-01T16:57:29.088Z,26.19
2018-12-01T16:58:29.109Z,26.26
2018-12-01T17:00:22.151Z,26.23
2018-12-01T17:01:22.036Z,26.26
2018-12-01T17:03:14.946Z,26.23
2018-12-01T17:04:14.958Z,26.30
2018-12-01T17:06:08.132Z,26.26
2018-12-01T17:07:07.883Z,26.26
2018-12-01T17:09:00.821Z,26.25
2018-12-01T17:10:00.810Z,26.20
2018-12-01T17:11:53.985Z,26.15
2018-12-01T17:12:53.747Z,26.07
2018-12-01T17:14:46.648Z,26.15
2018-12-01T17:15:46.662Z,26.03
2018-12-01T17:17:39.658Z,26.11
2018-12-01T17:18:39.587Z,26.10
2018-12-01T17:20:32.506Z,26.07
2018-12-01T17:21:32.520Z,26.00
2018-12-01T17:23:25.584Z,26.00
2018-12-01T17:24:25.447Z,25.96
2018-12-01T17:26:18.358Z,25.97
2018-12-01T17:27:18.368Z,25.97
2018-12-01T17:29:30.017Z,26.02
2018-12-01T17:30:11.292Z,25.97
2018-12-01T17:32:04.239Z,25.97
2018-12-01T17:33:04.224Z,25.96
2018-12-01T17:34:57.309Z,25.92
2018-12-01T17:35:57.149Z,25.88
2018-12-01T17:37:50.065Z,25.85
2018-12-01T17:38:50.079Z,25.88
2018-12-01T17:40:43.258Z,25.93
2018-12-01T17:41:43.007Z,25.90
2018-12-01T17:43:36.471Z,25.93
2018-12-01T17:44:35.934Z,25.95
2018-12-01T17:46:29.047Z,25.99
2018-12-01T17:47:28.861Z,25.99
2018-12-01T17:49:21.774Z,25.96
2018-12-01T17:50:21.783Z,25.99
2018-12-01T17:52:14.870Z,25.88
2018-12-01T17:53:14.711Z,25.82
2018-12-01T17:55:07.624Z,25.85
2018-12-01T17:56:07.637Z,25.85
2018-12-01T17:58:00.633Z,25.99
2018-12-01T17:59:00.573Z,25.81
2018-12-01T18:00:53.501Z,25.93
2018-12-01T18:01:53.512Z,25.87
2018-12-01T18:03:46.597Z,25.81
2018-12-01T18:04:46.440Z,25.78
2018-12-01T18:06:39.355Z,25.82
2018-12-01T18:07:39.365Z,25.87
2018-12-01T18:09:32.537Z,25.95
2018-12-01T18:10:32.389Z,25.87
2018-12-01T18:12:25.208Z,25.97
2018-12-01T18:13:25.224Z,25.96
2018-12-01T18:15:18.395Z,26.04
2018-12-01T18:16:18.151Z,26.03
2018-12-01T18:18:11.057Z,26.04
2018-12-01T18:19:11.195Z,26.00
2018-12-01T18:21:04.057Z,26.06
2018-12-01T18:22:03.994Z,26.03
2018-12-01T18:23:56.908Z,26.07
2018-12-01T18:24:56.920Z,26.03
2018-12-01T18:26:49.906Z,26.07
2018-12-01T18:27:49.849Z,26.07
2018-12-01T18:29:42.758Z,26.03
2018-12-01T18:30:42.774Z,26.10
2018-12-01T18:32:35.945Z,26.11
2018-12-01T18:33:35.698Z,26.02
2018-12-01T18:35:28.617Z,26.03